sensor_id;sensor_type;location;lat;lon;timestamp;temperature;humidity
2889;DHT22;1453;42.708;23.282;2023-03-15T00:02:06;7.00;65.10
2889;DHT22;1453;42.708;23.282;2023-03-15T00:04:32;6.80;65.40
2889;DHT22;1453;42.708;23.282;2023-03-15T00:06:58;6.50;66.30
2889;DHT22;1453;42.708;23.282;2023-03-15T00:09:24;6.40;67.60
2889;DHT22;1453;42.708;23.282;2023-03-15T00:11:51;6.40;69.00
2889;DHT22;1453;42.708;23.282;2023-03-15T00:14:19;6.40;68.90
2889;DHT22;1453;42.708;23.282;2023-03-15T00:16:45;6.30;69.40
2889;DHT22;1453;42.708;23.282;2023-03-15T00:19:11;6.30;70.30
2889;DHT22;1453;42.708;23.282;2023-03-15T00:21:38;5.80;73.30
2889;DHT22;1453;42.708;23.282;2023-03-15T00:24:10;5.50;79.10
2889;DHT22;1453;42.708;23.282;2023-03-15T00:26:37;5.40;83.90
2889;DHT22;1453;42.708;23.282;2023-03-15T00:29:04;5.20;88.60
2889;DHT22;1453;42.708;23.282;2023-03-15T00:31:30;5.30;90.20
2889;DHT22;1453;42.708;23.282;2023-03-15T00:33:56;5.60;88.40
2889;DHT22;1453;42.708;23.282;2023-03-15T00:36:23;5.70;87.40
2889;DHT22;1453;42.708;23.282;2023-03-15T00:38:51;5.60;87.60
2889;DHT22;1453;42.708;23.282;2023-03-15T00:41:19;5.60;90.30
2889;DHT22;1453;42.708;23.282;2023-03-15T00:43:46;5.40;91.20
2889;DHT22;1453;42.708;23.282;2023-03-15T00:46:13;5.40;93.30
2889;DHT22;1453;42.708;23.282;2023-03-15T00:48:39;5.40;93.20
2889;DHT22;1453;42.708;23.282;2023-03-15T00:53:37;5.50;93.50
2889;DHT22;1453;42.708;23.282;2023-03-15T00:56:13;5.60;93.90
2889;DHT22;1453;42.708;23.282;2023-03-15T00:58:42;5.60;94.20
2889;DHT22;1453;42.708;23.282;2023-03-15T01:01:12;5.30;96.00
2889;DHT22;1453;42.708;23.282;2023-03-15T01:03:40;5.40;97.00
2889;DHT22;1453;42.708;23.282;2023-03-15T01:06:07;5.50;97.20
2889;DHT22;1453;42.708;23.282;2023-03-15T01:08:38;5.60;97.10
2889;DHT22;1453;42.708;23.282;2023-03-15T01:11:08;5.70;97.90
2889;DHT22;1453;42.708;23.282;2023-03-15T01:13:36;5.70;97.50
2889;DHT22;1453;42.708;23.282;2023-03-15T01:16:02;5.90;96.40
2889;DHT22;1453;42.708;23.282;2023-03-15T01:18:28;5.80;96.50
2889;DHT22;1453;42.708;23.282;2023-03-15T01:20:55;5.60;98.00
2889;DHT22;1453;42.708;23.282;2023-03-15T01:23:21;5.50;99.90
2889;DHT22;1453;42.708;23.282;2023-03-15T01:25:47;5.70;99.40
2889;DHT22;1453;42.708;23.282;2023-03-15T01:28:13;5.80;98.40
2889;DHT22;1453;42.708;23.282;2023-03-15T01:30:39;6.00;96.40
2889;DHT22;1453;42.708;23.282;2023-03-15T01:33:05;6.00;95.90
2889;DHT22;1453;42.708;23.282;2023-03-15T01:35:30;6.10;96.60
2889;DHT22;1453;42.708;23.282;2023-03-15T01:37:56;6.00;97.70
2889;DHT22;1453;42.708;23.282;2023-03-15T01:40:22;6.00;98.60
2889;DHT22;1453;42.708;23.282;2023-03-15T01:48:47;5.90;99.50
2889;DHT22;1453;42.708;23.282;2023-03-15T01:57:26;5.30;99.90
2889;DHT22;1453;42.708;23.282;2023-03-15T02:00:12;5.30;99.90
2889;DHT22;1453;42.708;23.282;2023-03-15T02:02:42;5.60;99.90
2889;DHT22;1453;42.708;23.282;2023-03-15T02:05:15;5.60;99.90
2889;DHT22;1453;42.708;23.282;2023-03-15T02:07:44;5.80;99.90
2889;DHT22;1453;42.708;23.282;2023-03-15T02:10:42;5.90;99.90
2889;DHT22;1453;42.708;23.282;2023-03-15T02:13:10;5.80;99.90
2889;DHT22;1453;42.708;23.282;2023-03-15T02:15:37;5.80;99.90
2889;DHT22;1453;42.708;23.282;2023-03-15T02:18:03;5.90;99.90
2889;DHT22;1453;42.708;23.282;2023-03-15T02:20:50;5.90;99.90
2889;DHT22;1453;42.708;23.282;2023-03-15T02:23:37;6.00;99.90
2889;DHT22;1453;42.708;23.282;2023-03-15T02:28:59;5.90;99.90
2889;DHT22;1453;42.708;23.282;2023-03-15T02:31:26;5.90;99.90
2889;DHT22;1453;42.708;23.282;2023-03-15T02:33:53;5.80;99.90
2889;DHT22;1453;42.708;23.282;2023-03-15T02:36:24;5.60;99.90
2889;DHT22;1453;42.708;23.282;2023-03-15T02:38:52;5.60;99.90
2889;DHT22;1453;42.708;23.282;2023-03-15T02:41:32;5.50;99.90
2889;DHT22;1453;42.708;23.282;2023-03-15T02:44:10;5.50;99.90
2889;DHT22;1453;42.708;23.282;2023-03-15T02:46:42;5.50;99.90
2889;DHT22;1453;42.708;23.282;2023-03-15T02:49:09;5.50;99.90
2889;DHT22;1453;42.708;23.282;2023-03-15T02:51:36;5.50;99.90
2889;DHT22;1453;42.708;23.282;2023-03-15T02:54:01;5.60;99.90
2889;DHT22;1453;42.708;23.282;2023-03-15T02:56:27;5.50;99.90
2889;DHT22;1453;42.708;23.282;2023-03-15T02:58:53;5.50;99.90
2889;DHT22;1453;42.708;23.282;2023-03-15T03:01:19;5.40;99.90
2889;DHT22;1453;42.708;23.282;2023-03-15T03:03:46;5.30;99.90
2889;DHT22;1453;42.708;23.282;2023-03-15T03:06:13;5.20;99.90
2889;DHT22;1453;42.708;23.282;2023-03-15T03:08:39;5.40;99.90
2889;DHT22;1453;42.708;23.282;2023-03-15T03:11:06;5.40;99.90
2889;DHT22;1453;42.708;23.282;2023-03-15T03:13:32;5.40;99.90
2889;DHT22;1453;42.708;23.282;2023-03-15T03:15:58;5.40;99.90
2889;DHT22;1453;42.708;23.282;2023-03-15T03:18:24;5.40;99.90
2889;DHT22;1453;42.708;23.282;2023-03-15T03:20:54;5.50;99.90
2889;DHT22;1453;42.708;23.282;2023-03-15T03:23:23;5.60;99.90
2889;DHT22;1453;42.708;23.282;2023-03-15T03:25:55;5.50;99.90
2889;DHT22;1453;42.708;23.282;2023-03-15T03:28:22;5.30;99.90
2889;DHT22;1453;42.708;23.282;2023-03-15T03:30:53;5.20;99.90
2889;DHT22;1453;42.708;23.282;2023-03-15T03:33:20;5.40;99.90
2889;DHT22;1453;42.708;23.282;2023-03-15T03:35:47;5.30;99.90
2889;DHT22;1453;42.708;23.282;2023-03-15T03:38:13;5.30;99.90
2889;DHT22;1453;42.708;23.282;2023-03-15T03:40:40;5.10;99.90
2889;DHT22;1453;42.708;23.282;2023-03-15T03:43:07;5.20;99.90
2889;DHT22;1453;42.708;23.282;2023-03-15T03:45:33;5.40;99.90
2889;DHT22;1453;42.708;23.282;2023-03-15T03:47:59;5.50;99.90
2889;DHT22;1453;42.708;23.282;2023-03-15T03:50:26;5.60;99.90
2889;DHT22;1453;42.708;23.282;2023-03-15T03:52:52;5.40;99.90
2889;DHT22;1453;42.708;23.282;2023-03-15T03:55:18;5.10;99.90
2889;DHT22;1453;42.708;23.282;2023-03-15T03:57:44;5.20;99.90
2889;DHT22;1453;42.708;23.282;2023-03-15T04:00:12;5.30;99.90
2889;DHT22;1453;42.708;23.282;2023-03-15T04:02:39;5.40;99.90
2889;DHT22;1453;42.708;23.282;2023-03-15T04:05:09;5.30;99.90
2889;DHT22;1453;42.708;23.282;2023-03-15T04:07:35;5.30;99.90
2889;DHT22;1453;42.708;23.282;2023-03-15T04:10:02;5.40;99.90
2889;DHT22;1453;42.708;23.282;2023-03-15T04:12:29;5.50;99.90
2889;DHT22;1453;42.708;23.282;2023-03-15T04:14:54;5.60;99.90
2889;DHT22;1453;42.708;23.282;2023-03-15T04:17:20;5.70;99.90
2889;DHT22;1453;42.708;23.282;2023-03-15T04:19:46;5.60;99.90
2889;DHT22;1453;42.708;23.282;2023-03-15T04:22:12;5.40;99.90
2889;DHT22;1453;42.708;23.282;2023-03-15T04:24:40;5.20;99.90
2889;DHT22;1453;42.708;23.282;2023-03-15T04:27:06;5.00;99.90
2889;DHT22;1453;42.708;23.282;2023-03-15T04:29:32;4.80;99.90
2889;DHT22;1453;42.708;23.282;2023-03-15T04:31:58;5.00;99.90
2889;DHT22;1453;42.708;23.282;2023-03-15T04:34:29;5.10;99.90
2889;DHT22;1453;42.708;23.282;2023-03-15T04:36:56;5.30;99.90
2889;DHT22;1453;42.708;23.282;2023-03-15T04:39:22;5.30;99.90
2889;DHT22;1453;42.708;23.282;2023-03-15T04:41:49;5.30;99.90
2889;DHT22;1453;42.708;23.282;2023-03-15T04:44:15;5.20;99.90
2889;DHT22;1453;42.708;23.282;2023-03-15T04:46:42;5.20;99.90
2889;DHT22;1453;42.708;23.282;2023-03-15T04:49:08;5.30;99.90
2889;DHT22;1453;42.708;23.282;2023-03-15T04:51:34;5.30;99.90
2889;DHT22;1453;42.708;23.282;2023-03-15T04:54:01;5.40;99.90
2889;DHT22;1453;42.708;23.282;2023-03-15T04:56:28;5.50;99.90
2889;DHT22;1453;42.708;23.282;2023-03-15T04:58:54;5.60;99.90
2889;DHT22;1453;42.708;23.282;2023-03-15T05:01:24;5.60;99.90
2889;DHT22;1453;42.708;23.282;2023-03-15T05:03:54;5.50;99.90
2889;DHT22;1453;42.708;23.282;2023-03-15T05:06:20;5.60;99.90
2889;DHT22;1453;42.708;23.282;2023-03-15T05:08:45;5.70;99.90
2889;DHT22;1453;42.708;23.282;2023-03-15T05:11:12;5.80;99.90
2889;DHT22;1453;42.708;23.282;2023-03-15T05:13:38;5.80;98.90
2889;DHT22;1453;42.708;23.282;2023-03-15T05:16:04;5.70;99.90
2889;DHT22;1453;42.708;23.282;2023-03-15T05:18:30;5.60;99.90
2889;DHT22;1453;42.708;23.282;2023-03-15T05:20:55;5.30;99.90
2889;DHT22;1453;42.708;23.282;2023-03-15T05:23:22;5.10;99.90
2889;DHT22;1453;42.708;23.282;2023-03-15T05:25:53;5.10;99.90
2889;DHT22;1453;42.708;23.282;2023-03-15T05:28:21;5.40;99.90
2889;DHT22;1453;42.708;23.282;2023-03-15T05:30:48;5.70;97.40
2889;DHT22;1453;42.708;23.282;2023-03-15T05:33:15;5.80;95.20
2889;DHT22;1453;42.708;23.282;2023-03-15T05:35:41;5.90;95.50
2889;DHT22;1453;42.708;23.282;2023-03-15T05:38:11;6.00;94.70
2889;DHT22;1453;42.708;23.282;2023-03-15T05:40:44;6.10;95.80
2889;DHT22;1453;42.708;23.282;2023-03-15T05:43:11;6.20;99.40
2889;DHT22;1453;42.708;23.282;2023-03-15T05:45:37;6.30;99.10
2889;DHT22;1453;42.708;23.282;2023-03-15T05:48:04;6.40;99.00
2889;DHT22;1453;42.708;23.282;2023-03-15T05:50:30;6.50;97.20
2889;DHT22;1453;42.708;23.282;2023-03-15T05:52:56;6.20;94.40
2889;DHT22;1453;42.708;23.282;2023-03-15T05:55:23;6.00;92.30
2889;DHT22;1453;42.708;23.282;2023-03-15T05:57:49;6.00;90.40
2889;DHT22;1453;42.708;23.282;2023-03-15T06:00:15;6.00;87.80
2889;DHT22;1453;42.708;23.282;2023-03-15T06:02:43;6.00;83.40
2889;DHT22;1453;42.708;23.282;2023-03-15T06:05:10;6.00;80.90
2889;DHT22;1453;42.708;23.282;2023-03-15T06:07:36;6.10;80.20
2889;DHT22;1453;42.708;23.282;2023-03-15T06:10:02;6.20;77.80
2889;DHT22;1453;42.708;23.282;2023-03-15T06:12:29;6.10;77.40
2889;DHT22;1453;42.708;23.282;2023-03-15T06:14:55;6.20;76.80
2889;DHT22;1453;42.708;23.282;2023-03-15T06:17:20;6.30;76.30
2889;DHT22;1453;42.708;23.282;2023-03-15T06:19:46;6.50;76.40
2889;DHT22;1453;42.708;23.282;2023-03-15T06:22:12;6.50;75.10
2889;DHT22;1453;42.708;23.282;2023-03-15T06:24:38;6.70;75.30
2889;DHT22;1453;42.708;23.282;2023-03-15T06:27:03;6.90;74.90
2889;DHT22;1453;42.708;23.282;2023-03-15T06:29:29;6.70;73.60
2889;DHT22;1453;42.708;23.282;2023-03-15T06:31:55;6.70;74.30
2889;DHT22;1453;42.708;23.282;2023-03-15T06:34:21;7.10;74.00
2889;DHT22;1453;42.708;23.282;2023-03-15T06:36:47;7.10;72.80
2889;DHT22;1453;42.708;23.282;2023-03-15T06:39:14;7.50;72.50
2889;DHT22;1453;42.708;23.282;2023-03-15T06:41:40;7.40;71.50
2889;DHT22;1453;42.708;23.282;2023-03-15T06:44:07;7.50;71.80
2889;DHT22;1453;42.708;23.282;2023-03-15T06:46:33;7.90;72.00
2889;DHT22;1453;42.708;23.282;2023-03-15T06:48:59;8.10;70.30
2889;DHT22;1453;42.708;23.282;2023-03-15T06:51:25;8.70;70.50
2889;DHT22;1453;42.708;23.282;2023-03-15T06:53:51;9.10;67.60
2889;DHT22;1453;42.708;23.282;2023-03-15T06:56:17;9.70;66.10
2889;DHT22;1453;42.708;23.282;2023-03-15T06:58:43;10.40;63.80
2889;DHT22;1453;42.708;23.282;2023-03-15T07:01:13;10.20;61.10
2889;DHT22;1453;42.708;23.282;2023-03-15T07:03:39;10.20;59.60
2889;DHT22;1453;42.708;23.282;2023-03-15T07:06:06;10.40;60.60
2889;DHT22;1453;42.708;23.282;2023-03-15T07:08:31;11.70;58.70
2889;DHT22;1453;42.708;23.282;2023-03-15T07:10:57;12.50;57.10
2889;DHT22;1453;42.708;23.282;2023-03-15T07:13:23;12.30;55.50
2889;DHT22;1453;42.708;23.282;2023-03-15T07:15:53;12.10;56.40
2889;DHT22;1453;42.708;23.282;2023-03-15T07:18:19;13.00;55.60
2889;DHT22;1453;42.708;23.282;2023-03-15T07:20:45;13.60;54.40
2889;DHT22;1453;42.708;23.282;2023-03-15T07:23:11;13.20;53.00
2889;DHT22;1453;42.708;23.282;2023-03-15T07:25:37;13.70;53.60
2889;DHT22;1453;42.708;23.282;2023-03-15T07:28:03;13.70;52.90
2889;DHT22;1453;42.708;23.282;2023-03-15T07:30:29;14.20;52.70
2889;DHT22;1453;42.708;23.282;2023-03-15T07:32:55;13.80;52.00
2889;DHT22;1453;42.708;23.282;2023-03-15T07:35:20;13.50;51.60
2889;DHT22;1453;42.708;23.282;2023-03-15T07:37:46;12.90;51.50
2889;DHT22;1453;42.708;23.282;2023-03-15T07:40:12;12.80;52.00
2889;DHT22;1453;42.708;23.282;2023-03-15T07:42:40;13.00;53.00
2889;DHT22;1453;42.708;23.282;2023-03-15T07:45:07;13.70;52.50
2889;DHT22;1453;42.708;23.282;2023-03-15T07:47:34;14.20;51.80
2889;DHT22;1453;42.708;23.282;2023-03-15T07:50:00;13.80;51.10
2889;DHT22;1453;42.708;23.282;2023-03-15T07:52:28;13.60;51.50
2889;DHT22;1453;42.708;23.282;2023-03-15T07:54:54;14.00;52.50
2889;DHT22;1453;42.708;23.282;2023-03-15T07:57:19;15.50;51.40
2889;DHT22;1453;42.708;23.282;2023-03-15T07:59:45;15.80;50.30
2889;DHT22;1453;42.708;23.282;2023-03-15T08:02:12;15.70;49.60
2889;DHT22;1453;42.708;23.282;2023-03-15T08:04:39;14.80;49.00
2889;DHT22;1453;42.708;23.282;2023-03-15T08:07:05;14.50;50.00
2889;DHT22;1453;42.708;23.282;2023-03-15T08:09:31;15.10;49.60
2889;DHT22;1453;42.708;23.282;2023-03-15T08:11:59;15.00;48.40
2889;DHT22;1453;42.708;23.282;2023-03-15T08:14:25;14.30;50.40
2889;DHT22;1453;42.708;23.282;2023-03-15T08:16:51;14.40;50.10
2889;DHT22;1453;42.708;23.282;2023-03-15T08:19:17;14.90;50.20
2889;DHT22;1453;42.708;23.282;2023-03-15T08:21:43;15.20;49.20
2889;DHT22;1453;42.708;23.282;2023-03-15T08:24:10;14.70;48.40
2889;DHT22;1453;42.708;23.282;2023-03-15T08:26:36;13.80;49.10
2889;DHT22;1453;42.708;23.282;2023-03-15T08:29:02;14.70;50.30
2889;DHT22;1453;42.708;23.282;2023-03-15T08:31:28;15.20;49.00
2889;DHT22;1453;42.708;23.282;2023-03-15T08:33:55;15.10;48.50
2889;DHT22;1453;42.708;23.282;2023-03-15T08:36:21;15.50;49.00
2889;DHT22;1453;42.708;23.282;2023-03-15T08:38:47;14.60;47.60
2889;DHT22;1453;42.708;23.282;2023-03-15T08:41:12;14.70;50.10
2889;DHT22;1453;42.708;23.282;2023-03-15T08:43:38;15.30;49.80
2889;DHT22;1453;42.708;23.282;2023-03-15T08:46:04;15.50;48.20
2889;DHT22;1453;42.708;23.282;2023-03-15T08:48:30;15.80;48.30
2889;DHT22;1453;42.708;23.282;2023-03-15T08:51:01;16.10;48.20
2889;DHT22;1453;42.708;23.282;2023-03-15T08:53:29;17.00;48.30
2889;DHT22;1453;42.708;23.282;2023-03-15T08:55:55;17.20;47.50
2889;DHT22;1453;42.708;23.282;2023-03-15T08:58:22;17.30;48.40
2889;DHT22;1453;42.708;23.282;2023-03-15T09:00:48;16.20;47.60
2889;DHT22;1453;42.708;23.282;2023-03-15T09:03:16;15.30;47.90
2889;DHT22;1453;42.708;23.282;2023-03-15T09:05:42;15.00;49.20
2889;DHT22;1453;42.708;23.282;2023-03-15T09:08:08;15.00;49.40
2889;DHT22;1453;42.708;23.282;2023-03-15T09:10:34;14.80;49.30
2889;DHT22;1453;42.708;23.282;2023-03-15T09:13:00;14.90;50.00
2889;DHT22;1453;42.708;23.282;2023-03-15T09:15:25;15.10;49.90
2889;DHT22;1453;42.708;23.282;2023-03-15T09:17:51;15.10;49.50
2889;DHT22;1453;42.708;23.282;2023-03-15T09:20:18;14.70;49.70
2889;DHT22;1453;42.708;23.282;2023-03-15T09:22:55;14.40;49.90
2889;DHT22;1453;42.708;23.282;2023-03-15T09:25:22;13.70;50.20
2889;DHT22;1453;42.708;23.282;2023-03-15T09:27:49;13.10;51.20
2889;DHT22;1453;42.708;23.282;2023-03-15T09:30:16;13.50;52.20
2889;DHT22;1453;42.708;23.282;2023-03-15T09:32:42;13.50;51.90
2889;DHT22;1453;42.708;23.282;2023-03-15T09:35:11;13.70;52.00
2889;DHT22;1453;42.708;23.282;2023-03-15T09:37:39;13.70;51.70
2889;DHT22;1453;42.708;23.282;2023-03-15T09:40:11;13.00;52.20
2889;DHT22;1453;42.708;23.282;2023-03-15T09:49:04;14.70;53.00
2889;DHT22;1453;42.708;23.282;2023-03-15T09:51:45;14.90;51.50
2889;DHT22;1453;42.708;23.282;2023-03-15T09:54:27;13.30;51.00
2889;DHT22;1453;42.708;23.282;2023-03-15T09:57:14;13.00;52.50
2889;DHT22;1453;42.708;23.282;2023-03-15T09:59:51;12.40;53.50
2889;DHT22;1453;42.708;23.282;2023-03-15T10:02:29;12.50;53.70
2889;DHT22;1453;42.708;23.282;2023-03-15T10:05:10;11.90;53.80
2889;DHT22;1453;42.708;23.282;2023-03-15T10:07:38;11.80;54.90
2889;DHT22;1453;42.708;23.282;2023-03-15T10:10:13;11.90;55.00
2889;DHT22;1453;42.708;23.282;2023-03-15T10:12:57;12.10;54.90
2889;DHT22;1453;42.708;23.282;2023-03-15T10:16:50;11.90;54.90
2889;DHT22;1453;42.708;23.282;2023-03-15T10:19:50;12.10;54.60
2889;DHT22;1453;42.708;23.282;2023-03-15T10:25:08;12.70;54.30
2889;DHT22;1453;42.708;23.282;2023-03-15T10:30:31;13.60;53.60
2889;DHT22;1453;42.708;23.282;2023-03-15T10:35:57;13.70;52.40
2889;DHT22;1453;42.708;23.282;2023-03-15T10:38:24;13.20;53.30
2889;DHT22;1453;42.708;23.282;2023-03-15T10:40:54;12.60;53.20
2889;DHT22;1453;42.708;23.282;2023-03-15T10:43:25;12.50;53.60
2889;DHT22;1453;42.708;23.282;2023-03-15T10:49:14;12.20;54.30
2889;DHT22;1453;42.708;23.282;2023-03-15T10:54:15;12.00;54.60
2889;DHT22;1453;42.708;23.282;2023-03-15T10:59:35;12.10;55.00
2889;DHT22;1453;42.708;23.282;2023-03-15T11:04:43;11.80;54.90
2889;DHT22;1453;42.708;23.282;2023-03-15T11:07:13;11.80;55.00
2889;DHT22;1453;42.708;23.282;2023-03-15T11:09:46;11.90;55.20
2889;DHT22;1453;42.708;23.282;2023-03-15T11:12:29;11.80;55.20
2889;DHT22;1453;42.708;23.282;2023-03-15T11:15:11;11.80;55.30
2889;DHT22;1453;42.708;23.282;2023-03-15T11:17:49;11.70;55.50
2889;DHT22;1453;42.708;23.282;2023-03-15T11:20:38;11.60;55.90
2889;DHT22;1453;42.708;23.282;2023-03-15T11:23:16;12.10;56.00
2889;DHT22;1453;42.708;23.282;2023-03-15T11:25:45;11.60;54.90
2889;DHT22;1453;42.708;23.282;2023-03-15T11:28:19;11.90;55.70
2889;DHT22;1453;42.708;23.282;2023-03-15T11:30:48;12.10;55.40
2889;DHT22;1453;42.708;23.282;2023-03-15T11:33:36;12.10;55.00
2889;DHT22;1453;42.708;23.282;2023-03-15T11:36:18;11.20;55.40
2889;DHT22;1453;42.708;23.282;2023-03-15T11:38:46;11.30;56.30
2889;DHT22;1453;42.708;23.282;2023-03-15T11:44:44;11.10;57.80
2889;DHT22;1453;42.708;23.282;2023-03-15T11:47:52;10.80;62.60
2889;DHT22;1453;42.708;23.282;2023-03-15T11:50:20;10.10;65.90
2889;DHT22;1453;42.708;23.282;2023-03-15T11:52:48;10.20;70.10
2889;DHT22;1453;42.708;23.282;2023-03-15T11:55:25;9.90;75.20
2889;DHT22;1453;42.708;23.282;2023-03-15T11:57:53;9.90;78.70
2889;DHT22;1453;42.708;23.282;2023-03-15T12:03:25;9.90;84.50
2889;DHT22;1453;42.708;23.282;2023-03-15T12:06:10;9.80;90.80
2889;DHT22;1453;42.708;23.282;2023-03-15T12:08:52;9.60;90.50
2889;DHT22;1453;42.708;23.282;2023-03-15T12:16:26;10.10;91.60
2889;DHT22;1453;42.708;23.282;2023-03-15T12:18:57;10.00;90.60
2889;DHT22;1453;42.708;23.282;2023-03-15T12:21:38;10.00;90.60
2889;DHT22;1453;42.708;23.282;2023-03-15T12:24:13;10.10;91.30
2889;DHT22;1453;42.708;23.282;2023-03-15T12:26:44;10.10;90.10
2889;DHT22;1453;42.708;23.282;2023-03-15T12:29:15;10.10;90.50
2889;DHT22;1453;42.708;23.282;2023-03-15T12:32:04;9.90;92.20
2889;DHT22;1453;42.708;23.282;2023-03-15T12:55:58;9.90;87.20
2889;DHT22;1453;42.708;23.282;2023-03-15T12:58:36;9.90;87.70
2889;DHT22;1453;42.708;23.282;2023-03-15T13:01:05;10.00;84.20
2889;DHT22;1453;42.708;23.282;2023-03-15T13:03:34;10.00;84.70
2889;DHT22;1453;42.708;23.282;2023-03-15T13:13:03;9.80;85.50
2889;DHT22;1453;42.708;23.282;2023-03-15T13:24:57;9.90;81.70
2889;DHT22;1453;42.708;23.282;2023-03-15T13:33:31;9.80;82.70
2889;DHT22;1453;42.708;23.282;2023-03-15T13:38:49;9.80;83.00
2889;DHT22;1453;42.708;23.282;2023-03-15T13:41:25;9.90;84.50
2889;DHT22;1453;42.708;23.282;2023-03-15T13:43:55;9.80;84.80
2889;DHT22;1453;42.708;23.282;2023-03-15T13:46:24;10.10;84.30
2889;DHT22;1453;42.708;23.282;2023-03-15T13:48:53;10.00;82.20
2889;DHT22;1453;42.708;23.282;2023-03-15T13:51:27;10.00;84.00
2889;DHT22;1453;42.708;23.282;2023-03-15T14:00:00;9.80;88.40
2889;DHT22;1453;42.708;23.282;2023-03-15T14:05:19;9.60;90.50
2889;DHT22;1453;42.708;23.282;2023-03-15T14:07:59;9.50;92.60
2889;DHT22;1453;42.708;23.282;2023-03-15T14:10:35;9.30;97.30
2889;DHT22;1453;42.708;23.282;2023-03-15T14:13:20;9.10;99.80
2889;DHT22;1453;42.708;23.282;2023-03-15T14:15:49;9.10;99.90
2889;DHT22;1453;42.708;23.282;2023-03-15T14:18:22;9.10;99.90
2889;DHT22;1453;42.708;23.282;2023-03-15T14:20:57;9.00;99.90
2889;DHT22;1453;42.708;23.282;2023-03-15T14:23:29;8.90;99.90
2889;DHT22;1453;42.708;23.282;2023-03-15T14:26:05;9.00;99.90
2889;DHT22;1453;42.708;23.282;2023-03-15T14:28:38;8.90;99.90
2889;DHT22;1453;42.708;23.282;2023-03-15T14:31:05;9.00;99.90
2889;DHT22;1453;42.708;23.282;2023-03-15T14:33:40;9.00;99.90
2889;DHT22;1453;42.708;23.282;2023-03-15T14:36:22;9.00;99.90
2889;DHT22;1453;42.708;23.282;2023-03-15T14:38:52;9.10;99.90
2889;DHT22;1453;42.708;23.282;2023-03-15T14:41:28;9.00;99.90
2889;DHT22;1453;42.708;23.282;2023-03-15T14:44:01;9.20;99.90
2889;DHT22;1453;42.708;23.282;2023-03-15T14:46:29;9.10;99.90
2889;DHT22;1453;42.708;23.282;2023-03-15T14:48:56;8.90;99.90
2889;DHT22;1453;42.708;23.282;2023-03-15T14:51:22;9.00;99.90
2889;DHT22;1453;42.708;23.282;2023-03-15T14:53:52;9.10;99.90
2889;DHT22;1453;42.708;23.282;2023-03-15T14:56:21;9.00;99.90
2889;DHT22;1453;42.708;23.282;2023-03-15T14:58:47;9.00;99.90
2889;DHT22;1453;42.708;23.282;2023-03-15T15:01:19;9.00;99.90
2889;DHT22;1453;42.708;23.282;2023-03-15T15:03:56;9.00;99.90
2889;DHT22;1453;42.708;23.282;2023-03-15T15:06:25;9.10;99.90
2889;DHT22;1453;42.708;23.282;2023-03-15T15:08:55;9.00;99.90
2889;DHT22;1453;42.708;23.282;2023-03-15T15:11:21;8.90;99.90
2889;DHT22;1453;42.708;23.282;2023-03-15T15:13:47;9.00;99.90
2889;DHT22;1453;42.708;23.282;2023-03-15T15:16:13;9.00;99.90
2889;DHT22;1453;42.708;23.282;2023-03-15T15:18:39;8.90;99.90
2889;DHT22;1453;42.708;23.282;2023-03-15T15:21:26;8.80;99.90
2889;DHT22;1453;42.708;23.282;2023-03-15T15:23:54;8.90;99.90
2889;DHT22;1453;42.708;23.282;2023-03-15T15:26:21;8.60;99.90
2889;DHT22;1453;42.708;23.282;2023-03-15T15:28:50;8.60;99.90
2889;DHT22;1453;42.708;23.282;2023-03-15T15:31:19;8.60;99.90
2889;DHT22;1453;42.708;23.282;2023-03-15T15:33:49;8.70;99.90
2889;DHT22;1453;42.708;23.282;2023-03-15T15:36:22;8.50;99.90
2889;DHT22;1453;42.708;23.282;2023-03-15T15:38:49;8.50;99.90
2889;DHT22;1453;42.708;23.282;2023-03-15T15:41:22;8.50;99.90
2889;DHT22;1453;42.708;23.282;2023-03-15T15:43:51;8.50;99.90
2889;DHT22;1453;42.708;23.282;2023-03-15T15:46:18;8.50;99.90
2889;DHT22;1453;42.708;23.282;2023-03-15T15:48:44;8.60;99.90
2889;DHT22;1453;42.708;23.282;2023-03-15T15:51:31;8.70;99.90
2889;DHT22;1453;42.708;23.282;2023-03-15T15:54:01;8.80;99.90
2889;DHT22;1453;42.708;23.282;2023-03-15T15:56:36;8.70;99.90
2889;DHT22;1453;42.708;23.282;2023-03-15T15:59:11;8.70;99.90
2889;DHT22;1453;42.708;23.282;2023-03-15T16:01:39;8.60;99.90
2889;DHT22;1453;42.708;23.282;2023-03-15T16:04:07;8.60;99.90
2889;DHT22;1453;42.708;23.282;2023-03-15T16:06:34;8.60;99.90
2889;DHT22;1453;42.708;23.282;2023-03-15T16:09:01;8.50;99.90
2889;DHT22;1453;42.708;23.282;2023-03-15T16:11:29;8.60;99.90
2889;DHT22;1453;42.708;23.282;2023-03-15T16:13:55;8.70;99.90
2889;DHT22;1453;42.708;23.282;2023-03-15T16:16:21;8.60;99.90
2889;DHT22;1453;42.708;23.282;2023-03-15T16:18:47;8.50;99.90
2889;DHT22;1453;42.708;23.282;2023-03-15T16:21:26;8.50;99.90
2889;DHT22;1453;42.708;23.282;2023-03-15T16:24:00;8.50;99.90
2889;DHT22;1453;42.708;23.282;2023-03-15T16:26:30;8.60;99.90
2889;DHT22;1453;42.708;23.282;2023-03-15T16:28:56;8.70;99.90
2889;DHT22;1453;42.708;23.282;2023-03-15T16:31:22;9.00;99.90
2889;DHT22;1453;42.708;23.282;2023-03-15T16:33:48;9.10;99.90
2889;DHT22;1453;42.708;23.282;2023-03-15T16:36:16;9.10;99.90
2889;DHT22;1453;42.708;23.282;2023-03-15T16:38:43;9.20;99.90
2889;DHT22;1453;42.708;23.282;2023-03-15T16:41:11;9.20;99.90
2889;DHT22;1453;42.708;23.282;2023-03-15T16:43:38;9.20;99.90
2889;DHT22;1453;42.708;23.282;2023-03-15T16:46:14;8.80;99.90
2889;DHT22;1453;42.708;23.282;2023-03-15T16:48:41;8.60;99.90
2889;DHT22;1453;42.708;23.282;2023-03-15T16:51:08;8.50;99.90
2889;DHT22;1453;42.708;23.282;2023-03-15T16:53:37;8.40;99.90
2889;DHT22;1453;42.708;23.282;2023-03-15T16:56:03;8.50;99.90
2889;DHT22;1453;42.708;23.282;2023-03-15T16:58:30;8.60;99.90
2889;DHT22;1453;42.708;23.282;2023-03-15T17:01:00;8.60;99.90
2889;DHT22;1453;42.708;23.282;2023-03-15T17:03:26;8.90;99.90
2889;DHT22;1453;42.708;23.282;2023-03-15T17:05:55;8.80;99.90
2889;DHT22;1453;42.708;23.282;2023-03-15T17:08:21;8.80;99.90
2889;DHT22;1453;42.708;23.282;2023-03-15T17:10:48;9.00;99.90
2889;DHT22;1453;42.708;23.282;2023-03-15T17:13:16;9.10;99.90
2889;DHT22;1453;42.708;23.282;2023-03-15T17:15:47;9.20;99.90
2889;DHT22;1453;42.708;23.282;2023-03-15T17:18:17;9.20;99.90
2889;DHT22;1453;42.708;23.282;2023-03-15T17:20:48;9.30;99.90
2889;DHT22;1453;42.708;23.282;2023-03-15T17:23:15;9.10;99.90
2889;DHT22;1453;42.708;23.282;2023-03-15T17:25:41;9.10;99.90
2889;DHT22;1453;42.708;23.282;2023-03-15T17:28:07;9.00;99.90
2889;DHT22;1453;42.708;23.282;2023-03-15T17:30:37;9.10;99.90
2889;DHT22;1453;42.708;23.282;2023-03-15T17:33:03;9.00;99.90
2889;DHT22;1453;42.708;23.282;2023-03-15T17:35:50;8.90;99.90
2889;DHT22;1453;42.708;23.282;2023-03-15T17:38:27;8.80;99.90
2889;DHT22;1453;42.708;23.282;2023-03-15T17:40:56;8.70;99.90
2889;DHT22;1453;42.708;23.282;2023-03-15T17:43:22;8.90;99.90
2889;DHT22;1453;42.708;23.282;2023-03-15T17:45:48;9.00;99.90
2889;DHT22;1453;42.708;23.282;2023-03-15T17:48:14;8.80;99.90
2889;DHT22;1453;42.708;23.282;2023-03-15T17:50:42;8.60;99.90
2889;DHT22;1453;42.708;23.282;2023-03-15T17:53:16;8.60;99.90
2889;DHT22;1453;42.708;23.282;2023-03-15T17:55:44;8.40;99.90
2889;DHT22;1453;42.708;23.282;2023-03-15T17:58:17;8.20;99.90
2889;DHT22;1453;42.708;23.282;2023-03-15T18:00:45;8.00;99.90
2889;DHT22;1453;42.708;23.282;2023-03-15T18:03:12;7.80;99.90